Time;durP1;ratioP1;P1;durP2;ratioP2;P2;SDS_P1;SDS_P2;PMS_P1;PMS_P2;Temp;Humidity;BMP_temperature;BMP_pressure;BME280_temperature;BME280_humidity;BME280_pressure;Samples;Min_cycle;Max_cycle;Signal;HPM_P1;HPM_P2
2023/01/26 00:00:43;;;;;;;458.73;147.30;;;;;;;-3.07;100.00;102465.16;5112894;28;20026;-56
2023/01/26 00:03:08;;;;;;;475.83;162.35;;;;;;;-3.06;100.00;102461.91;5112560;28;20055;-56
2023/01/26 00:05:36;;;;;;;464.98;147.35;;;;;;;-3.05;100.00;102463.66;5113265;28;20463;-56
2023/01/26 00:08:01;;;;;;;;;;;;;;;-2.98;100.00;102461.09;5112884;28;20032;-56
2023/01/26 00:10:26;;;;;;;464.45;143.82;;;;;;;-3.04;100.00;102457.91;5113447;28;19919;-56
2023/01/26 00:12:52;;;;;;;452.92;143.80;;;;;;;-3.04;100.00;102449.44;5112927;28;20383;-56
2023/01/26 00:15:17;;;;;;;478.95;146.48;;;;;;;-3.02;100.00;102448.91;5112405;28;20119;-56
2023/01/26 00:17:43;;;;;;;464.33;144.38;;;;;;;-2.99;100.00;102448.34;5112885;28;20077;-56
2023/01/26 00:20:09;;;;;;;456.77;142.68;;;;;;;-3.00;100.00;102442.38;5113290;28;20063;-56
2023/01/26 00:22:34;;;;;;;486.70;150.80;;;;;;;-3.00;100.00;102449.06;5111996;28;20055;-56
2023/01/26 00:25:00;;;;;;;487.05;147.45;;;;;;;-2.99;100.00;102439.13;5116693;28;20020;-56
2023/01/26 00:27:25;;;;;;;477.30;145.00;;;;;;;-2.94;100.00;102446.28;5117304;28;20047;-56
2023/01/26 00:29:50;;;;;;;491.80;149.27;;;;;;;-2.93;100.00;102436.41;5116129;28;20019;-56
2023/01/26 00:32:16;;;;;;;494.95;149.27;;;;;;;-2.92;100.00;102434.75;5117304;28;20402;-56
2023/01/26 00:34:41;;;;;;;218.13;42.28;;;;;;;-2.85;100.00;102438.13;5116839;28;20027;-56
2023/01/26 00:37:06;;;;;;;505.20;150.90;;;;;;;-2.90;100.00;102430.78;5116402;28;20019;-56
2023/01/26 00:39:31;;;;;;;474.17;145.75;;;;;;;-2.91;100.00;102421.41;5116833;28;20102;-56
2023/01/26 00:42:08;;;;;;;479.88;144.45;;;;;;;-2.91;100.00;102423.94;5116926;28;20035;-55
2023/01/26 00:44:34;;;;;;;490.50;147.07;;;;;;;-2.93;100.00;102420.34;5116385;28;20020;-56
2023/01/26 00:46:59;;;;;;;192.07;39.15;;;;;;;-2.85;100.00;102422.09;5116818;28;20462;-56
2023/01/26 00:49:25;;;;;;;452.92;136.05;;;;;;;-2.91;100.00;102421.41;5116890;28;20049;-56
2023/01/26 00:51:50;;;;;;;498.30;152.77;;;;;;;-2.91;100.00;102408.81;5116986;28;20035;-56
2023/01/26 00:54:15;;;;;;;473.17;139.23;;;;;;;-2.91;100.00;102403.75;5117521;28;20459;-56
2023/01/26 00:56:40;;;;;;;487.70;141.77;;;;;;;-2.88;100.00;102406.59;5117168;28;20023;-56
2023/01/26 00:59:06;;;;;;;467.75;143.60;;;;;;;-2.93;100.00;102392.59;5116786;28;20032;-56
2023/01/26 01:01:31;;;;;;;460.80;137.32;;;;;;;-2.93;100.00;102397.63;5116158;28;20067;-54
2023/01/26 01:03:58;;;;;;;476.73;140.98;;;;;;;-2.94;100.00;102401.81;5116514;28;20031;-56
2023/01/26 01:06:23;;;;;;;457.13;134.45;;;;;;;-2.94;100.00;102390.78;5116054;28;20020;-56
2023/01/26 01:08:48;;;;;;;443.52;135.32;;;;;;;-2.97;100.00;102396.41;5116265;28;20016;-56
2023/01/26 01:11:14;;;;;;;443.52;135.38;;;;;;;-2.98;100.00;102393.00;5115647;28;20043;-56
2023/01/26 01:13:40;;;;;;;468.75;139.00;;;;;;;-2.95;100.00;102394.06;5115986;28;20390;-56
2023/01/26 01:16:07;;;;;;;488.17;142.10;;;;;;;-2.95;100.00;102391.56;5116519;28;20072;-56
2023/01/26 01:18:33;;;;;;;478.00;142.15;;;;;;;-2.95;100.00;102400.00;5115347;28;20044;-56
2023/01/26 01:20:58;;;;;;;474.52;141.48;;;;;;;-2.93;100.00;102397.63;5116394;28;20058;-56
2023/01/26 01:23:27;;;;;;;471.55;141.73;;;;;;;-2.93;100.00;102403.59;5116228;28;20428;-56
2023/01/26 01:25:59;;;;;;;202.38;38.90;;;;;;;-2.84;100.00;102398.63;5115399;28;20095;-56
2023/01/26 01:28:25;;;;;;;454.13;137.18;;;;;;;-2.88;100.00;102391.47;5116308;28;20053;-56
2023/01/26 01:30:50;;;;;;;469.10;134.65;;;;;;;-2.87;100.00;102384.06;5116206;28;20024;-56
2023/01/26 01:33:16;;;;;;;463.58;139.65;;;;;;;-2.87;100.00;102380.66;5115190;28;20042;-56
2023/01/26 01:35:41;;;;;;;484.92;151.80;;;;;;;-2.86;100.00;102379.94;5115111;28;20028;-56
2023/01/26 01:38:06;;;;;;;203.98;41.55;;;;;;;-2.77;100.00;102385.97;5116072;28;20028;-56
2023/01/26 01:40:32;;;;;;;424.90;134.27;;;;;;;-2.87;100.00;102388.22;5114808;28;20028;-56
2023/01/26 01:42:57;;;;;;;442.65;134.15;;;;;;;-2.89;100.00;102389.66;5115713;28;20036;-56
2023/01/26 01:45:25;;;;;;;423.27;128.25;;;;;;;-2.87;100.00;102396.69;5115793;28;20038;-56
2023/01/26 01:47:57;;;;;;;441.27;134.27;;;;;;;-2.88;100.00;102386.41;5115337;28;20020;-56
2023/01/26 01:50:23;;;;;;;445.85;134.43;;;;;;;-2.84;100.00;102391.06;5115647;28;20380;-56
2023/01/26 01:52:49;;;;;;;210.40;43.63;;;;;;;-2.75;100.00;102399.66;5115305;28;20024;-56
2023/01/26 01:55:15;;;;;;;459.92;133.57;;;;;;;-2.78;100.00;102401.81;5114966;28;20398;-56
2023/01/26 01:58:02;;;;;;;452.08;136.32;;;;;;;-2.76;100.00;102396.94;5115496;28;20022;-56
2023/01/26 02:00:27;;;;;;;436.37;134.43;;;;;;;-2.77;100.00;102397.69;5114615;28;20020;-56
2023/01/26 02:03:18;;;;;;;448.98;135.70;;;;;;;-2.78;100.00;102398.41;5115100;28;20637;-55
2023/01/26 02:05:50;;;;;;;453.55;134.82;;;;;;;-2.75;100.00;102388.66;5114995;28;20031;-56
2023/01/26 02:08:18;;;;;;;204.93;42.22;;;;;;;-2.68;100.00;102386.06;5114850;28;20032;-56
2023/01/26 02:10:46;;;;;;;450.98;135.68;;;;;;;-2.75;100.00;102388.66;5115177;28;20095;-57
2023/01/26 02:13:12;;;;;;;429.25;128.32;;;;;;;-2.71;100.00;102376.53;5115306;28;20026;-56
2023/01/26 02:15:37;;;;;;;188.73;39.70;;;;;;;-2.65;100.00;102367.09;5114263;28;20023;-56
2023/01/26 02:18:04;;;;;;;423.73;128.13;;;;;;;-2.70;100.00;102365.72;5115144;28;20015;-56
2023/01/26 02:20:41;;;;;;;436.70;128.80;;;;;;;-2.71;100.00;102368.03;5114559;28;20020;-56
2023/01/26 02:23:28;;;;;;;460.52;133.30;;;;;;;-2.71;100.00;102365.53;5114628;28;20070;-54
2023/01/26 02:25:53;;;;;;;454.05;136.32;;;;;;;-2.74;100.00;102363.56;5114990;28;20029;-55
2023/01/26 02:28:26;;;;;;;462.20;135.88;;;;;;;-2.72;100.00;102369.69;5114630;28;20027;-56
2023/01/26 02:30:53;;;;;;;461.38;135.75;;;;;;;-2.70;100.00;102362.28;5114590;28;20026;-56
2023/01/26 02:33:25;;;;;;;447.25;132.77;;;;;;;-2.72;100.00;102368.81;5114987;28;20157;-56
2023/01/26 02:35:50;;;;;;;468.38;133.55;;;;;;;-2.72;100.00;102358.72;5114185;28;20115;-56
2023/01/26 02:38:18;;;;;;;454.25;132.18;;;;;;;-2.69;100.00;102364.97;5114819;28;20098;-56
2023/01/26 02:40:50;;;;;;;456.33;135.65;;;;;;;-2.65;100.00;102346.00;5114312;28;20376;-56
2023/01/26 02:43:16;;;;;;;456.35;132.82;;;;;;;-2.67;100.00;102358.47;5113735;28;20479;-56
2023/01/26 02:45:42;;;;;;;454.50;131.00;;;;;;;-2.68;100.00;102356.66;5114113;28;20030;-56
2023/01/26 02:48:07;;;;;;;449.25;130.55;;;;;;;-2.64;100.00;102352.84;5114278;28;20103;-56
2023/01/26 02:50:33;;;;;;;453.33;131.20;;;;;;;-2.66;100.00;102344.19;5113504;28;20094;-56
2023/01/26 02:52:59;;;;;;;441.25;128.70;;;;;;;-2.63;100.00;102348.69;5114496;28;20100;-56
2023/01/26 02:55:25;;;;;;;197.05;39.15;;;;;;;-2.56;100.00;102351.13;5114087;28;20539;-56
2023/01/26 02:58:02;;;;;;;457.92;128.55;;;;;;;-2.59;100.00;102344.13;5113575;28;20038;-56
2023/01/26 03:00:36;;;;;;;209.50;37.53;;;;;;;-2.53;100.00;102346.41;5114298;28;20015;-56
2023/01/26 03:03:44;;;;;;;435.80;127.72;;;;;;;-2.60;100.00;102351.56;5114037;28;20059;-56
2023/01/26 03:06:11;;;;;;;452.80;127.63;;;;;;;-2.61;100.00;102347.22;5114104;28;20398;-56
2023/01/26 03:08:37;;;;;;;440.60;123.55;;;;;;;-2.61;100.00;102349.75;5114122;28;20020;-56
2023/01/26 03:11:04;;;;;;;465.35;128.43;;;;;;;-2.59;100.00;102345.78;5113507;28;20031;-56
2023/01/26 03:13:30;;;;;;;463.35;131.60;;;;;;;-2.58;100.00;102348.47;5114039;28;20031;-56
2023/01/26 03:15:55;;;;;;;452.50;125.72;;;;;;;-2.59;100.00;102348.31;5114164;28;20028;-56
2023/01/26 03:29:25;;;;;;;438.73;123.10;;;;;;;-2.47;100.00;102343.66;5113847;28;20514;-56
2023/01/26 03:31:51;;;;;;;431.45;123.32;;;;;;;-2.42;100.00;102350.09;5113179;28;20023;-56
2023/01/26 03:34:16;;;;;;;438.33;122.28;;;;;;;-2.39;100.00;102351.31;5113693;28;20064;-56
2023/01/26 03:36:42;;;;;;;424.27;121.35;;;;;;;-2.37;100.00;102343.91;5113734;28;20494;-56
2023/01/26 03:39:08;;;;;;;409.35;119.97;;;;;;;-2.36;100.00;102346.56;5112984;28;20906;-56
2023/01/26 03:57:58;;;;;;;359.08;110.18;;;;;;;-2.22;100.00;102339.53;5113498;28;20050;-56
2023/01/26 04:00:23;;;;;;;353.05;111.15;;;;;;;-2.22;100.00;102331.97;5112673;28;20027;-56
2023/01/26 04:08:21;;;;;;;342.65;110.13;;;;;;;-2.21;100.00;102331.25;5112876;28;20050;-56
2023/01/26 04:10:47;;;;;;;326.90;102.00;;;;;;;-2.18;100.00;102331.59;5112991;28;20024;-56
2023/01/26 04:21:32;;;;;;;154.88;30.92;;;;;;;-2.01;100.00;102330.81;5095049;28;20071;-56
2023/01/26 04:23:57;;;;;;;288.48;95.43;;;;;;;-2.10;100.00;102335.78;5092893;28;20028;-56
2023/01/26 04:26:25;;;;;;;286.27;95.63;;;;;;;-2.11;100.00;102334.00;5092741;28;20042;-56
2023/01/26 04:28:50;;;;;;;299.23;94.07;;;;;;;-2.08;100.00;102329.28;5091941;28;20024;-56
2023/01/26 04:31:15;;;;;;;112.00;26.50;;;;;;;-1.96;100.00;102328.75;5092699;28;20456;-57
2023/01/26 04:33:41;;;;;;;283.80;93.13;;;;;;;-2.01;100.00;102334.22;5092066;28;20024;-56
2023/01/26 04:36:08;;;;;;;276.05;91.28;;;;;;;-2.01;100.00;102339.28;5092378;28;20020;-56
2023/01/26 04:38:34;;;;;;;278.73;93.05;;;;;;;-2.04;100.00;102331.38;5092360;28;20028;-57
2023/01/26 04:41:00;;;;;;;275.23;91.65;;;;;;;-1.99;100.00;102339.44;5092598;28;20016;-56
2023/01/26 04:43:25;;;;;;;281.50;89.57;;;;;;;-2.02;100.00;102329.91;5092084;28;20031;-56
2023/01/26 04:46:02;;;;;;;286.20;92.35;;;;;;;-1.99;100.00;102331.84;5092623;28;20047;-56
2023/01/26 04:48:28;;;;;;;274.50;88.70;;;;;;;-1.96;100.00;102331.28;5092333;28;20020;-56
2023/01/26 04:50:59;;;;;;;276.45;90.40;;;;;;;-2.02;100.00;102334.94;5092073;28;20285;-56
2023/01/26 04:53:25;;;;;;;281.77;91.05;;;;;;;-1.96;100.00;102333.78;5092699;28;20028;-54
2023/01/26 04:55:51;;;;;;;255.38;87.10;;;;;;;-1.92;100.00;102338.47;5092142;28;20035;-54
2023/01/26 04:58:16;;;;;;;289.85;89.80;;;;;;;-1.93;100.00;102331.59;5092083;28;20028;-54
2023/01/26 05:00:42;;;;;;;270.70;90.13;;;;;;;-1.90;100.00;102327.78;5092046;28;20024;-54
2023/01/26 05:03:07;;;;;;;261.27;85.45;;;;;;;-1.91;100.00;102332.66;5092124;28;20052;-56
2023/01/26 05:05:37;;;;;;;263.38;85.55;;;;;;;-1.85;100.00;102329.16;5091758;28;20066;-57
2023/01/26 05:08:04;;;;;;;275.13;88.97;;;;;;;-1.88;100.00;102325.41;5092590;28;20016;-56
2023/01/26 05:10:29;;;;;;;284.83;91.10;;;;;;;-1.79;100.00;102323.81;5093484;28;20478;-56
2023/01/26 05:12:54;;;;;;;266.48;85.22;;;;;;;-1.86;100.00;102321.38;5095985;28;20032;-57
2023/01/26 05:15:20;;;;;;;261.65;86.90;;;;;;;-1.79;100.00;102328.88;5096185;28;20026;-57
2023/01/26 05:17:45;;;;;;;259.05;85.20;;;;;;;-1.83;100.00;102321.72;5094822;28;20081;-56
2023/01/26 05:20:11;;;;;;;265.98;82.78;;;;;;;-1.82;100.00;102321.88;5096144;28;20063;-56
2023/01/26 05:22:36;;;;;;;266.73;86.03;;;;;;;-1.78;100.00;102324.69;5095482;28;20032;-56
2023/01/26 05:25:02;;;;;;;123.20;26.65;;;;;;;-1.69;100.00;102326.56;5095214;28;20035;-55
2023/01/26 05:27:27;;;;;;;253.85;81.45;;;;;;;-1.75;100.00;102325.91;5095507;28;20020;-56
2023/01/26 05:29:54;;;;;;;248.20;80.38;;;;;;;-1.78;100.00;102323.09;5095420;28;20490;-56
2023/01/26 05:32:20;;;;;;;248.35;79.70;;;;;;;-1.79;100.00;102336.44;5095333;28;20032;-55
2023/01/26 05:34:46;;;;;;;222.87;72.80;;;;;;;-1.77;100.00;102329.03;5095630;28;20032;-56
2023/01/26 05:37:12;;;;;;;224.63;74.57;;;;;;;-1.72;100.00;102331.28;5095532;28;20036;-56
2023/01/26 05:39:37;;;;;;;110.82;24.60;;;;;;;-1.60;100.00;102335.81;5094835;28;20019;-56
2023/01/26 05:42:02;;;;;;;216.48;71.25;;;;;;;-1.71;100.00;102328.00;5095450;28;20024;-56
2023/01/26 05:44:28;;;;;;;225.25;74.18;;;;;;;-1.72;100.00;102325.34;5094925;28;20043;-56
2023/01/26 05:46:54;;;;;;;220.40;71.13;;;;;;;-1.74;100.00;102327.72;5094803;28;20008;-56
2023/01/26 05:49:19;;;;;;;221.68;69.95;;;;;;;-1.69;100.00;102331.59;5095499;28;20035;-56
2023/01/26 05:51:44;;;;;;;235.60;74.22;;;;;;;-1.69;100.00;102326.56;5094844;28;20027;-56
2023/01/26 05:54:10;;;;;;;221.90;71.95;;;;;;;-1.66;100.00;102329.38;5094936;28;20413;-56
2023/01/26 05:56:35;;;;;;;215.32;71.32;;;;;;;-1.71;100.00;102325.50;5094975;28;20027;-56
2023/01/26 05:59:00;;;;;;;221.38;71.13;;;;;;;-1.69;100.00;102325.63;5094883;28;20020;-56
2023/01/26 06:01:26;;;;;;;218.02;70.05;;;;;;;-1.69;100.00;102331.59;5094538;28;20095;-56
2023/01/26 06:03:52;;;;;;;206.95;66.55;;;;;;;-1.70;100.00;102327.28;5094855;28;20484;-56
2023/01/26 06:06:18;;;;;;;214.85;67.72;;;;;;;-1.70;100.00;102334.88;5094758;28;20040;-56
2023/01/26 06:08:43;;;;;;;206.60;67.38;;;;;;;-1.66;100.00;102338.63;5094113;28;20035;-56
2023/01/26 06:11:08;;;;;;;221.60;68.40;;;;;;;-1.67;100.00;102342.75;5094879;28;20031;-56
2023/01/26 06:13:34;;;;;;;212.52;69.60;;;;;;;-1.69;100.00;102344.25;5093566;28;20027;-56
2023/01/26 06:16:00;;;;;;;209.20;70.60;;;;;;;-1.68;100.00;102343.50;5094760;28;20046;-56
2023/01/26 06:18:25;;;;;;;208.88;67.63;;;;;;;-1.66;100.00;102344.56;5094661;28;20028;-56
2023/01/26 06:20:51;;;;;;;214.90;71.13;;;;;;;-1.66;100.00;102346.19;5094171;28;20032;-56
2023/01/26 06:23:16;;;;;;;213.77;69.63;;;;;;;-1.72;100.00;102341.38;5094659;28;20491;-56
2023/01/26 06:25:41;;;;;;;212.68;68.93;;;;;;;-1.71;100.00;102343.19;5094390;28;20042;-56
2023/01/26 06:28:07;;;;;;;209.52;72.10;;;;;;;-1.72;100.00;102335.44;5093764;28;20099;-56
2023/01/26 06:30:33;;;;;;;217.05;74.15;;;;;;;-1.72;100.00;102341.38;5094411;28;20384;-56
2023/01/26 06:32:59;;;;;;;210.73;70.80;;;;;;;-1.72;100.00;102343.91;5094408;28;20024;-56
2023/01/26 06:35:25;;;;;;;203.35;66.32;;;;;;;-1.69;100.00;102346.78;5093946;28;20024;-56
2023/01/26 06:37:51;;;;;;;203.73;65.47;;;;;;;-1.72;100.00;102346.44;5094709;28;20048;-56
2023/01/26 06:40:17;;;;;;;209.25;62.67;;;;;;;-1.70;100.00;102349.16;5094264;28;20469;-56
2023/01/26 06:42:49;;;;;;;217.00;68.07;;;;;;;-1.71;100.00;102355.81;5093349;28;20036;-56
2023/01/26 06:45:16;;;;;;;224.27;66.35;;;;;;;-1.72;100.00;102346.44;5094429;28;20031;-56
2023/01/26 06:47:48;;;;;;;204.18;64.70;;;;;;;-1.71;100.00;102358.34;5093772;28;20028;-55
2023/01/26 06:50:17;;;;;;;217.80;65.57;;;;;;;-1.71;100.00;102358.34;5093727;28;20016;-56
2023/01/26 06:52:45;;;;;;;214.93;64.68;;;;;;;-1.70;100.00;102360.16;5093694;28;20031;-56
2023/01/26 06:55:31;;;;;;;225.23;65.45;;;;;;;-1.67;100.00;102360.44;5093763;28;20044;-56
2023/01/26 06:57:56;;;;;;;215.25;64.57;;;;;;;-1.67;100.00;102357.03;5093660;28;20031;-56
2023/01/26 07:00:21;;;;;;;222.05;63.58;;;;;;;-1.63;100.00;102358.25;5093778;28;20055;-56
2023/01/26 07:02:47;;;;;;;214.57;64.70;;;;;;;-1.67;100.00;102355.38;5092656;28;20080;-55
2023/01/26 07:05:12;;;;;;;205.10;62.95;;;;;;;-1.56;100.00;102360.66;5093882;28;20368;-56
2023/01/26 07:07:37;;;;;;;94.53;20.92;;;;;;;-1.49;100.00;102358.03;5093430;28;20030;-56
2023/01/26 07:10:05;;;;;;;212.38;61.10;;;;;;;-1.60;100.00;102361.09;5092980;28;20418;-56
2023/01/26 07:12:41;;;;;;;203.10;60.33;;;;;;;-1.56;100.00;102365.72;5093665;28;20103;-56
2023/01/26 07:15:07;;;;;;;205.10;62.80;;;;;;;-1.56;100.00;102368.25;5093396;28;20498;-56
2023/01/26 07:17:32;;;;;;;204.65;59.88;;;;;;;-1.57;100.00;102371.53;5092771;28;20056;-56
2023/01/26 07:19:57;;;;;;;206.45;61.60;;;;;;;-1.57;100.00;102369.88;5093544;28;20048;-56
2023/01/26 07:22:22;;;;;;;212.93;62.40;;;;;;;-1.57;100.00;102366.47;5093097;28;20115;-56
2023/01/26 07:24:48;;;;;;;75.57;17.10;;;;;;;-1.44;100.00;102371.16;5092634;28;20495;-56
2023/01/26 07:27:13;;;;;;;208.32;60.28;;;;;;;-1.53;100.00;102371.09;5093552;28;20049;-56
2023/01/26 07:29:38;;;;;;;204.15;59.25;;;;;;;-1.47;100.00;102373.34;5092920;28;20051;-56
2023/01/26 07:32:03;;;;;;;201.30;58.85;;;;;;;-1.43;100.00;102371.31;5092421;28;20078;-56
2023/01/26 07:34:29;;;;;;;211.07;60.00;;;;;;;-1.49;100.00;102365.63;5093073;28;20031;-56
2023/01/26 07:36:54;;;;;;;227.02;62.72;;;;;;;-1.47;100.00;102369.22;5092864;28;20055;-56
2023/01/26 07:39:19;;;;;;;216.45;61.08;;;;;;;-1.50;100.00;102364.75;5093248;28;20017;-56
2023/01/26 07:41:45;;;;;;;201.77;60.90;;;;;;;-1.42;100.00;102370.59;5093030;28;20525;-56
2023/01/26 07:44:10;;;;;;;222.25;62.63;;;;;;;-1.45;100.00;102362.66;5092932;28;20024;-56
2023/01/26 07:46:35;;;;;;;238.98;64.30;;;;;;;-1.47;100.00;102374.28;5092308;28;20039;-55
2023/01/26 07:49:00;;;;;;;210.85;59.97;;;;;;;-1.44;100.00;102377.09;5093168;28;20024;-56
2023/01/26 07:51:26;;;;;;;202.50;60.15;;;;;;;-1.39;100.00;102378.47;5092484;28;20073;-56
2023/01/26 07:53:51;;;;;;;215.15;61.35;;;;;;;-1.42;100.00;102383.22;5092731;28;20107;-56
2023/01/26 07:56:19;;;;;;;208.23;59.90;;;;;;;-1.39;100.00;102382.66;5093230;28;20016;-56
2023/01/26 07:58:47;;;;;;;;;;;;;;;-1.27;100.00;102388.06;5092827;28;20116;-56
2023/01/26 08:01:13;;;;;;;210.02;62.40;;;;;;;-1.39;100.00;102381.00;5092553;28;20015;-56
2023/01/26 08:03:40;;;;;;;219.02;61.63;;;;;;;-1.40;100.00;102381.72;5092407;28;20056;-56
2023/01/26 08:06:06;;;;;;;226.52;62.28;;;;;;;-1.34;100.00;102386.53;5092174;28;20039;-56
2023/01/26 08:08:32;;;;;;;234.32;62.40;;;;;;;-1.40;100.00;102394.38;5092555;28;20456;-56
2023/01/26 08:11:02;;;;;;;216.35;61.13;;;;;;;-1.38;100.00;102402.13;5092827;28;20085;-56
2023/01/26 08:13:29;;;;;;;231.57;59.75;;;;;;;-1.43;100.00;102399.13;5091931;28;20032;-56
2023/01/26 08:15:59;;;;;;;250.07;63.25;;;;;;;-1.44;100.00;102394.81;5092991;28;20063;-56
2023/01/26 08:18:25;;;;;;;242.18;62.72;;;;;;;-1.45;100.00;102398.06;5092550;28;20088;-56
2023/01/26 08:20:52;;;;;;;232.05;61.72;;;;;;;-1.43;100.00;102401.66;5092197;28;20438;-56
2023/01/26 08:23:18;;;;;;;250.88;63.53;;;;;;;-1.43;100.00;102400.75;5092722;28;20134;-56
2023/01/26 08:25:43;;;;;;;243.45;63.75;;;;;;;-1.44;100.00;102397.34;5092367;28;20020;-56
2023/01/26 08:28:09;;;;;;;229.57;63.85;;;;;;;-1.37;100.00;102399.78;5092237;28;20024;-55
2023/01/26 08:30:35;;;;;;;220.93;62.33;;;;;;;-1.39;100.00;102388.59;5092463;28;20024;-56
2023/01/26 08:33:01;;;;;;;229.32;62.30;;;;;;;-1.39;100.00;102396.19;5092343;28;20027;-56
2023/01/26 08:35:26;;;;;;;223.25;61.33;;;;;;;-1.36;100.00;102400.66;5092036;28;20029;-56
2023/01/26 08:37:51;;;;;;;234.70;63.25;;;;;;;-1.30;100.00;102403.81;5092809;28;20020;-56
2023/01/26 08:40:17;;;;;;;229.15;61.30;;;;;;;-1.30;100.00;102407.97;5092494;28;20085;-56
2023/01/26 08:42:42;;;;;;;244.75;64.63;;;;;;;-1.34;100.00;102417.78;5091756;28;20032;-56
2023/01/26 08:45:08;;;;;;;222.00;59.95;;;;;;;-1.28;100.00;102416.63;5094371;28;20093;-55
2023/01/26 08:47:33;;;;;;;242.95;64.70;;;;;;;-1.35;100.00;102415.09;5095911;28;20468;-54
2023/01/26 08:49:59;;;;;;;245.80;61.83;;;;;;;-1.32;100.00;102415.41;5095834;28;20046;-55
2023/01/26 08:52:24;;;;;;;235.60;63.65;;;;;;;-1.31;100.00;102411.25;5096599;28;20525;-54
2023/01/26 08:54:49;;;;;;;274.48;65.65;;;;;;;-1.30;100.00;102420.59;5095909;28;20024;-54
2023/01/26 08:57:15;;;;;;;274.33;66.15;;;;;;;-1.33;100.00;102411.97;5095782;28;20020;-54
2023/01/26 08:59:41;;;;;;;267.05;65.50;;;;;;;-1.33;100.00;102409.47;5096008;28;20031;-54
2023/01/26 09:02:09;;;;;;;257.92;68.82;;;;;;;-1.33;100.00;102411.97;5095634;28;20059;-56
2023/01/26 09:04:34;;;;;;;280.67;69.43;;;;;;;-1.31;100.00;102412.13;5095312;28;20071;-54
2023/01/26 09:07:00;;;;;;;342.70;72.15;;;;;;;-1.28;100.00;102406.50;5096215;28;20051;-55
2023/01/26 09:09:25;;;;;;;286.55;67.07;;;;;;;-1.29;100.00;102409.75;5095428;28;20425;-55
2023/01/26 09:11:54;;;;;;;345.52;73.25;;;;;;;-1.27;100.00;102413.34;5096090;28;20097;-55
2023/01/26 09:14:19;;;;;;;131.07;21.00;;;;;;;-1.17;100.00;102411.03;5095710;28;20035;-55
2023/01/26 09:16:44;;;;;;;339.63;71.53;;;;;;;-1.28;100.00;102417.50;5095095;28;20028;-55
2023/01/26 09:19:10;;;;;;;333.02;68.38;;;;;;;-1.26;100.00;102415.16;5096151;28;20016;-55
2023/01/26 09:21:35;;;;;;;359.45;73.60;;;;;;;-1.25;100.00;102419.44;5095347;28;20758;-56
2023/01/26 09:24:01;;;;;;;377.88;74.68;;;;;;;-1.23;100.00;102410.41;5095359;28;20039;-56
2023/01/26 09:26:28;;;;;;;323.60;72.68;;;;;;;-1.27;100.00;102424.34;5095703;28;20016;-56
2023/01/26 09:28:53;;;;;;;430.90;84.28;;;;;;;-1.24;100.00;102413.66;5095585;28;20031;-56
2023/01/26 09:31:18;;;;;;;350.70;72.32;;;;;;;-1.25;100.00;102420.34;5095111;28;20032;-56
2023/01/26 09:33:44;;;;;;;341.13;75.13;;;;;;;-1.25;100.00;102416.91;5095266;28;20020;-56
2023/01/26 09:36:10;;;;;;;364.13;77.10;;;;;;;-1.25;100.00;102422.88;5095453;28;20059;-56
2023/01/26 09:38:37;;;;;;;358.40;76.65;;;;;;;-1.27;100.00;102424.34;5094943;28;20165;-56
2023/01/26 09:41:05;;;;;;;346.25;73.78;;;;;;;-1.25;100.00;102421.97;5095629;28;20099;-56
2023/01/26 09:43:36;;;;;;;368.50;76.22;;;;;;;-1.23;100.00;102430.63;5094890;28;20113;-56
2023/01/26 09:46:25;;;;;;;395.15;79.03;;;;;;;-1.21;100.00;102429.16;5094874;28;20379;-56
2023/01/26 09:49:18;;;;;;;400.70;80.18;;;;;;;-1.18;100.00;102419.34;5095414;28;20020;-56
2023/01/26 09:51:58;;;;;;;353.65;76.70;;;;;;;-1.18;100.00;102424.41;5094225;28;20020;-56
2023/01/26 09:54:34;;;;;;;370.85;79.63;;;;;;;-1.16;100.00;102428.00;5095172;28;20115;-56
2023/01/26 09:57:01;;;;;;;337.05;77.47;;;;;;;-1.11;100.00;102428.44;5094794;28;20027;-56
2023/01/26 09:59:35;;;;;;;403.45;79.35;;;;;;;-1.11;100.00;102425.91;5094430;28;20379;-56
2023/01/26 10:02:23;;;;;;;130.60;25.25;;;;;;;-1.00;100.00;102431.34;5094855;28;20478;-57
2023/01/26 10:04:50;;;;;;;;;;;;;;;-0.94;100.00;102430.16;5094894;28;20387;-56
2023/01/26 10:07:16;;;;;;;;;;;;;;;-0.90;100.00;102429.75;5094783;28;19912;-56
2023/01/26 10:09:47;;;;;;;399.63;80.65;;;;;;;-0.93;100.00;102426.91;5094874;28;19912;-56
2023/01/26 10:12:22;;;;;;;414.58;85.35;;;;;;;-0.88;100.00;102425.72;5094620;28;20408;-56
2023/01/26 10:14:52;;;;;;;447.50;90.43;;;;;;;-0.86;100.00;102422.63;5093977;28;20051;-56
2023/01/26 10:17:35;;;;;;;436.60;88.10;;;;;;;-0.75;100.00;102421.19;5094700;28;20455;-56
2023/01/26 10:20:06;;;;;;;437.35;94.25;;;;;;;-0.62;100.00;102422.41;5094494;28;20114;-56
2023/01/26 10:22:43;;;;;;;462.80;91.32;;;;;;;-0.53;100.00;102414.09;5094915;28;20111;-57
2023/01/26 10:25:14;;;;;;;460.20;97.60;;;;;;;-0.43;100.00;102418.41;5094368;28;20024;-56
2023/01/26 10:27:40;;;;;;;452.48;98.30;;;;;;;-0.30;100.00;102420.53;5093840;28;20020;-56
2023/01/26 10:30:11;;;;;;;469.98;100.97;;;;;;;-0.17;100.00;102417.56;5094738;28;20073;-56
2023/01/26 10:32:38;;;;;;;453.98;98.43;;;;;;;-0.13;100.00;102417.16;5094180;28;20020;-56
2023/01/26 10:35:04;;;;;;;427.03;95.97;;;;;;;-0.02;100.00;102420.72;5094122;28;20032;-56
2023/01/26 10:37:29;;;;;;;391.40;92.55;;;;;;;0.02;100.00;102419.38;5094290;28;20028;-57
2023/01/26 10:40:06;;;;;;;395.98;92.80;;;;;;;0.17;100.00;102436.09;5094191;28;20437;-56
2023/01/26 10:42:34;;;;;;;396.25;90.18;;;;;;;0.25;100.00;102435.19;5093661;28;20036;-56
2023/01/26 10:45:02;;;;;;;410.30;89.68;;;;;;;0.32;100.00;102426.50;5094395;28;20047;-56
2023/01/26 10:47:28;;;;;;;389.15;90.25;;;;;;;0.40;100.00;102424.72;5093598;28;20581;-56
2023/01/26 10:50:23;;;;;;;366.45;87.00;;;;;;;0.51;100.00;102425.75;5093668;28;20032;-56
2023/01/26 10:53:00;;;;;;;361.50;87.05;;;;;;;0.63;100.00;102430.38;5093632;28;20051;-56
2023/01/26 10:55:26;;;;;;;372.05;88.65;;;;;;;0.76;100.00;102431.50;5093368;28;20032;-57
2023/01/26 10:57:52;;;;;;;374.13;88.00;;;;;;;0.94;100.00;102428.19;5094133;28;20024;-56
2023/01/26 11:00:20;;;;;;;370.83;86.80;;;;;;;1.10;100.00;102425.44;5093719;28;20039;-57
2023/01/26 11:02:54;;;;;;;344.77;85.25;;;;;;;1.22;100.00;102423.13;5093069;28;20055;-57
2023/01/26 11:05:26;;;;;;;314.77;78.93;;;;;;;1.27;100.00;102421.03;5093987;28;20093;-56
2023/01/26 11:08:02;;;;;;;304.48;77.28;;;;;;;1.40;100.00;102423.94;5093079;28;20069;-56
2023/01/26 11:10:34;;;;;;;305.45;76.25;;;;;;;1.50;100.00;102430.78;5093153;28;20020;-56
2023/01/26 11:13:18;;;;;;;290.20;74.25;;;;;;;1.66;100.00;102417.81;5093587;28;20035;-56
2023/01/26 11:15:48;;;;;;;288.00;71.50;;;;;;;1.80;100.00;102411.44;5093125;28;20020;-56
2023/01/26 11:18:30;;;;;;;276.48;68.22;;;;;;;1.94;100.00;102418.66;5093160;28;20375;-56
2023/01/26 11:21:19;;;;;;;255.63;65.00;;;;;;;1.96;100.00;102423.88;5093584;28;20035;-55
2023/01/26 11:23:56;;;;;;;265.85;67.13;;;;;;;2.07;100.00;102425.72;5092663;28;20471;-55
2023/01/26 11:26:51;;;;;;;240.32;65.25;;;;;;;2.31;100.00;102421.03;5093700;28;20023;-55
2023/01/26 11:30:00;;;;;;;235.05;60.90;;;;;;;2.55;100.00;102416.31;5093250;28;20585;-55
2023/01/26 11:32:56;;;;;;;224.70;59.55;;;;;;;2.84;100.00;102429.03;5092601;28;20115;-56
2023/01/26 11:35:36;;;;;;;215.07;55.03;;;;;;;3.01;100.00;102422.84;5093264;28;20040;-56
2023/01/26 11:38:28;;;;;;;204.85;55.67;;;;;;;3.06;100.00;102424.13;5092810;28;20032;-56
2023/01/26 11:41:01;;;;;;;204.95;54.97;;;;;;;3.17;100.00;102414.84;5093162;28;20487;-56